Lapseki, Turkey
Current Conditions -  °F | °C
As of 5:50 AM on Sunday 23 Nov 2014 (Local Time) from LTBH Reporting Station
Broken Clouds Broken Clouds  
Wind Chill:   Ceiling: 10000
Heat Index:   Visibility: 6mi
Dew Point:   Wind: 5mph
Humidity: 93%   Direction: 70°ENE
Pressure: 30.3"   Gusts: NA
Location:  40.34°N, 26.69°E
Report Text: LTBH 230250Z 07004KT 9999 SCT035 BKN100 05/04 Q1026
Loading
Personal Weather Stations






























Interactive Weather Map New forecast layout! Learn more

10-Day Weather Forecast

Advertisements
Track Severe Weather on mobile